Time;durP1;ratioP1;P1;durP2;ratioP2;P2;SDS_P1;SDS_P2;PMS_P1;PMS_P2;Temp;Humidity;BMP_temperature;BMP_pressure;BME280_temperature;BME280_humidity;BME280_pressure;Samples;Min_cycle;Max_cycle;Signal;HPM_P1;HPM_P2
2022/03/02 00:01:04;;;;;;;34.28;16.33;;;;;;;;;;5052324;28;20048;-78
2022/03/02 00:03:30;;;;;;;32.17;15.80;;;;;;;;;;5039465;28;20026;-77
2022/03/02 00:05:55;;;;;;;33.47;16.10;;;;;;;;;;5041657;28;20098;-76
2022/03/02 00:08:21;;;;;;;32.13;16.15;;;;;;;;;;5044525;28;20318;-77
2022/03/02 00:10:46;;;;;;;33.70;16.70;;;;;;;;;;5044815;28;20021;-78
2022/03/02 00:13:11;;;;;;;34.40;17.48;;;;;;;;;;5028648;28;20199;-77
2022/03/02 00:15:37;;;;;;;32.17;16.35;;;;;;;;;;5022936;28;20046;-78
2022/03/02 00:18:02;;;;;;;35.53;17.08;;;;;;;;;;5023742;28;20072;-79
2022/03/02 00:20:28;;;;;;;36.30;16.38;;;;;;;;;;5024731;28;20048;-73
2022/03/02 00:22:53;;;;;;;36.38;16.42;;;;;;;;;;5023564;28;20018;-74
2022/03/02 00:25:22;;;;;;;41.13;15.70;;;;;;;;;;5023352;28;20306;-72
2022/03/02 00:27:48;;;;;;;32.85;16.08;;;;;;;;;;5022009;28;20045;-72
2022/03/02 00:30:13;;;;;;;34.72;15.73;;;;;;;;;;5023072;28;20029;-75
2022/03/02 00:32:40;;;;;;;32.30;15.88;;;;;;;;;;5023325;28;20048;-74
2022/03/02 00:35:05;;;;;;;33.17;17.35;;;;;;;;;;5021690;28;20049;-74
2022/03/02 00:37:31;;;;;;;32.55;16.58;;;;;;;;;;5022792;28;20045;-77
2022/03/02 00:39:57;;;;;;;36.13;18.08;;;;;;;;;;5027498;28;20037;-77
2022/03/02 00:42:23;;;;;;;39.97;17.55;;;;;;;;;;5025439;28;20030;-77
2022/03/02 00:44:49;;;;;;;34.10;17.92;;;;;;;;;;5023117;28;20101;-77
2022/03/02 00:47:14;;;;;;;34.15;15.98;;;;;;;;;;5021036;28;20029;-78
2022/03/02 00:49:40;;;;;;;34.65;16.05;;;;;;;;;;5023204;28;20037;-77
2022/03/02 00:52:09;;;;;;;35.97;15.82;;;;;;;;;;5031249;28;20021;-77
2022/03/02 00:54:34;;;;;;;36.78;16.25;;;;;;;;;;5042681;28;20138;-77
2022/03/02 00:57:00;;;;;;;31.02;16.15;;;;;;;;;;5042930;28;20477;-77
2022/03/02 00:59:26;;;;;;;31.55;15.18;;;;;;;;;;5043172;28;20072;-77
2022/03/02 01:01:51;;;;;;;30.58;15.60;;;;;;;;;;5042071;28;20027;-77
2022/03/02 01:04:17;;;;;;;28.73;15.32;;;;;;;;;;5042922;28;20029;-76
2022/03/02 01:06:42;;;;;;;31.65;15.88;;;;;;;;;;5042697;28;20021;-77
2022/03/02 01:09:07;;;;;;;31.52;15.00;;;;;;;;;;5042501;28;20088;-76
2022/03/02 01:11:33;;;;;;;30.83;15.65;;;;;;;;;;5042513;28;20317;-77
2022/03/02 01:13:58;;;;;;;30.42;15.63;;;;;;;;;;5042811;28;20033;-77
2022/03/02 01:16:23;;;;;;;29.05;15.77;;;;;;;;;;5041818;28;20049;-77
2022/03/02 01:18:49;;;;;;;30.73;15.45;;;;;;;;;;5042812;28;20056;-77
2022/03/02 01:21:14;;;;;;;32.72;16.25;;;;;;;;;;5042495;28;20026;-77
2022/03/02 01:23:40;;;;;;;30.00;15.70;;;;;;;;;;5042447;28;20218;-77
2022/03/02 01:26:05;;;;;;;30.92;15.10;;;;;;;;;;5041008;28;20024;-79
2022/03/02 01:28:31;;;;;;;31.23;15.80;;;;;;;;;;5037951;28;20040;-80
2022/03/02 01:30:56;;;;;;;29.67;15.43;;;;;;;;;;5029800;28;20322;-78
2022/03/02 01:33:22;;;;;;;31.38;15.75;;;;;;;;;;5034596;28;20028;-75
2022/03/02 01:35:47;;;;;;;28.27;14.50;;;;;;;;;;5042335;28;20029;-75
2022/03/02 01:38:13;;;;;;;32.03;14.98;;;;;;;;;;5036472;28;20034;-75
2022/03/02 01:40:39;;;;;;;29.38;14.63;;;;;;;;;;5042381;28;20067;-75
2022/03/02 01:43:04;;;;;;;30.83;15.35;;;;;;;;;;5042544;28;20030;-78
2022/03/02 01:45:30;;;;;;;28.95;15.75;;;;;;;;;;5041515;28;20321;-78
2022/03/02 01:48:02;;;;;;;30.60;15.30;;;;;;;;;;5042511;28;20313;-78
2022/03/02 01:50:28;;;;;;;27.52;14.98;;;;;;;;;;5042326;28;20067;-78
2022/03/02 01:52:54;;;;;;;28.33;14.45;;;;;;;;;;5042693;28;20245;-77
2022/03/02 01:55:19;;;;;;;28.90;14.80;;;;;;;;;;5028262;28;20037;-75
2022/03/02 01:57:44;;;;;;;28.73;14.55;;;;;;;;;;5036179;28;20044;-75
2022/03/02 02:00:14;;;;;;;31.83;15.15;;;;;;;;;;5041467;28;20017;-77
2022/03/02 02:02:40;;;;;;;28.27;14.23;;;;;;;;;;5042531;28;20315;-77
2022/03/02 02:05:06;;;;;;;28.55;14.52;;;;;;;;;;5042235;28;20092;-77
2022/03/02 02:07:32;;;;;;;29.67;15.18;;;;;;;;;;5042364;28;20029;-78
2022/03/02 02:09:58;;;;;;;29.95;14.45;;;;;;;;;;5042061;28;20092;-77
2022/03/02 02:12:24;;;;;;;31.50;15.05;;;;;;;;;;5042674;28;20026;-77
2022/03/02 02:14:49;;;;;;;31.65;14.48;;;;;;;;;;5041857;28;20268;-78
2022/03/02 02:17:15;;;;;;;28.15;14.73;;;;;;;;;;5042159;28;20377;-77
2022/03/02 02:19:40;;;;;;;30.15;15.50;;;;;;;;;;5042355;28;20044;-78
2022/03/02 02:22:06;;;;;;;28.05;15.13;;;;;;;;;;5042259;28;20032;-78
2022/03/02 02:24:31;;;;;;;30.05;14.85;;;;;;;;;;5040792;28;20082;-77
2022/03/02 02:26:56;;;;;;;30.88;15.18;;;;;;;;;;5042132;28;20025;-77
2022/03/02 02:29:25;;;;;;;32.13;14.60;;;;;;;;;;5040511;28;20132;-77
2022/03/02 02:31:51;;;;;;;30.67;14.65;;;;;;;;;;5041403;28;20028;-77
2022/03/02 02:34:16;;;;;;;30.13;15.02;;;;;;;;;;5041310;28;20067;-77
2022/03/02 02:36:42;;;;;;;29.33;14.85;;;;;;;;;;5041079;28;20026;-77
2022/03/02 02:39:09;;;;;;;31.33;15.20;;;;;;;;;;5041163;28;20428;-77
2022/03/02 02:41:34;;;;;;;31.65;15.10;;;;;;;;;;5041281;28;20096;-78
2022/03/02 02:44:00;;;;;;;28.27;14.50;;;;;;;;;;5040925;28;20126;-77
2022/03/02 02:46:25;;;;;;;26.50;14.63;;;;;;;;;;5037260;28;20035;-77
2022/03/02 02:48:51;;;;;;;29.67;15.20;;;;;;;;;;5041106;28;20021;-77
2022/03/02 02:51:16;;;;;;;30.20;14.48;;;;;;;;;;5038898;28;20025;-76
2022/03/02 02:53:41;;;;;;;28.13;14.50;;;;;;;;;;5039424;28;20017;-77
2022/03/02 02:56:07;;;;;;;27.58;14.55;;;;;;;;;;5040676;28;20023;-77
2022/03/02 02:58:32;;;;;;;30.02;15.10;;;;;;;;;;5040370;28;20017;-79
2022/03/02 03:00:57;;;;;;;31.02;15.40;;;;;;;;;;5039989;28;20313;-77
2022/03/02 03:03:23;;;;;;;31.80;14.45;;;;;;;;;;5040696;28;20018;-77
2022/03/02 03:05:51;;;;;;;27.90;14.27;;;;;;;;;;5039058;28;20044;-77
2022/03/02 03:08:17;;;;;;;28.17;14.13;;;;;;;;;;5037627;28;20017;-77
2022/03/02 03:10:43;;;;;;;34.97;14.40;;;;;;;;;;5040320;28;20021;-77
2022/03/02 03:13:09;;;;;;;32.58;14.18;;;;;;;;;;5038028;28;20033;-78
2022/03/02 03:15:35;;;;;;;28.98;14.48;;;;;;;;;;5039337;28;20033;-77
2022/03/02 03:18:02;;;;;;;28.60;15.02;;;;;;;;;;5040179;28;20023;-77
2022/03/02 03:20:28;;;;;;;27.23;14.52;;;;;;;;;;5040176;28;20542;-77
2022/03/02 03:22:55;;;;;;;29.05;15.32;;;;;;;;;;5040188;28;20049;-78
2022/03/02 03:25:21;;;;;;;28.15;14.55;;;;;;;;;;5035989;28;20026;-77
2022/03/02 03:27:48;;;;;;;29.42;14.70;;;;;;;;;;5040123;28;20041;-77
2022/03/02 03:30:16;;;;;;;30.30;14.38;;;;;;;;;;5038960;28;20033;-78
2022/03/02 03:32:41;;;;;;;31.90;15.45;;;;;;;;;;5040162;28;20044;-77
2022/03/02 03:35:09;;;;;;;30.77;14.02;;;;;;;;;;5040091;28;20028;-77
2022/03/02 03:37:34;;;;;;;29.92;15.05;;;;;;;;;;5039100;28;20210;-76
2022/03/02 03:40:00;;;;;;;27.90;14.85;;;;;;;;;;5040170;28;20322;-77
2022/03/02 03:42:25;;;;;;;28.25;14.65;;;;;;;;;;5040078;28;20055;-78
2022/03/02 03:44:51;;;;;;;32.60;15.45;;;;;;;;;;5039475;28;20039;-75
2022/03/02 03:47:16;;;;;;;29.48;15.30;;;;;;;;;;5040286;28;20067;-74
2022/03/02 03:49:42;;;;;;;28.65;14.18;;;;;;;;;;5040068;28;20068;-77
2022/03/02 03:52:07;;;;;;;33.47;15.10;;;;;;;;;;5040296;28;20071;-77
2022/03/02 03:54:32;;;;;;;34.13;15.98;;;;;;;;;;5039893;28;20470;-77
2022/03/02 03:56:58;;;;;;;30.10;15.32;;;;;;;;;;5040252;28;20018;-76
2022/03/02 03:59:23;;;;;;;32.75;14.82;;;;;;;;;;5039451;28;20021;-77
2022/03/02 04:01:48;;;;;;;28.13;14.95;;;;;;;;;;5039713;28;20034;-76
2022/03/02 04:04:14;;;;;;;27.80;14.27;;;;;;;;;;5039788;28;20029;-77
2022/03/02 04:06:39;;;;;;;27.65;13.68;;;;;;;;;;5039709;28;20105;-77
2022/03/02 04:09:05;;;;;;;29.52;15.10;;;;;;;;;;5039875;28;20094;-77
2022/03/02 04:11:31;;;;;;;30.98;14.52;;;;;;;;;;5039777;28;20021;-77
2022/03/02 04:13:56;;;;;;;33.05;15.40;;;;;;;;;;5039364;28;20057;-77
2022/03/02 04:16:22;;;;;;;32.45;15.98;;;;;;;;;;5039663;28;20040;-77
2022/03/02 04:18:47;;;;;;;31.30;14.77;;;;;;;;;;5051391;28;20022;-77
2022/03/02 04:21:13;;;;;;;32.83;14.90;;;;;;;;;;5039548;28;20049;-77
2022/03/02 04:23:38;;;;;;;27.58;13.85;;;;;;;;;;5039697;28;20029;-76
2022/03/02 04:26:03;;;;;;;32.75;15.10;;;;;;;;;;5039913;28;20390;-77
2022/03/02 04:28:29;;;;;;;29.10;15.05;;;;;;;;;;5039441;28;20051;-77
2022/03/02 04:30:55;;;;;;;27.63;14.00;;;;;;;;;;5039438;28;20340;-77
2022/03/02 04:33:21;;;;;;;28.52;14.73;;;;;;;;;;5039618;28;20025;-77
2022/03/02 04:35:46;;;;;;;30.15;15.23;;;;;;;;;;5039269;28;20047;-76
2022/03/02 04:38:12;;;;;;;28.77;14.52;;;;;;;;;;5038646;28;20055;-77
2022/03/02 04:40:37;;;;;;;29.45;13.93;;;;;;;;;;5038001;28;20033;-77
2022/03/02 04:43:03;;;;;;;28.75;14.73;;;;;;;;;;5039588;28;20029;-77
2022/03/02 04:45:29;;;;;;;27.60;14.20;;;;;;;;;;5038718;28;20036;-77
2022/03/02 04:47:56;;;;;;;29.73;14.05;;;;;;;;;;5040345;28;20417;-77
2022/03/02 04:50:22;;;;;;;33.60;15.43;;;;;;;;;;5039113;28;20045;-77
2022/03/02 04:52:48;;;;;;;30.60;14.05;;;;;;;;;;5043185;28;20335;-77
2022/03/02 04:55:16;;;;;;;28.23;13.65;;;;;;;;;;5043344;28;20313;-77
2022/03/02 04:57:47;;;;;;;32.83;14.27;;;;;;;;;;5043315;28;20033;-77
2022/03/02 05:00:17;;;;;;;29.80;14.73;;;;;;;;;;5043225;28;20040;-77
2022/03/02 05:02:43;;;;;;;30.92;13.88;;;;;;;;;;5043776;28;20088;-77
2022/03/02 05:05:10;;;;;;;29.45;14.70;;;;;;;;;;5045396;28;20038;-77
2022/03/02 05:07:36;;;;;;;25.63;13.40;;;;;;;;;;5049025;28;20276;-77
2022/03/02 05:10:04;;;;;;;29.00;14.00;;;;;;;;;;5043700;28;20041;-77
2022/03/02 05:12:30;;;;;;;28.60;14.27;;;;;;;;;;5043223;28;20022;-77
2022/03/02 05:14:56;;;;;;;26.13;13.55;;;;;;;;;;5042919;28;20040;-77
2022/03/02 05:17:21;;;;;;;28.30;13.55;;;;;;;;;;5043109;28;20033;-77
2022/03/02 05:19:46;;;;;;;29.33;13.80;;;;;;;;;;5043334;28;20028;-77
2022/03/02 05:22:12;;;;;;;32.67;13.90;;;;;;;;;;5042866;28;20021;-77
2022/03/02 05:24:37;;;;;;;25.92;13.35;;;;;;;;;;5042763;28;20318;-77
2022/03/02 05:27:04;;;;;;;26.33;13.90;;;;;;;;;;5042713;28;20025;-77
2022/03/02 05:29:29;;;;;;;28.75;13.68;;;;;;;;;;5042410;28;20029;-77
2022/03/02 05:31:54;;;;;;;25.02;13.50;;;;;;;;;;5042549;28;20115;-77
2022/03/02 05:34:20;;;;;;;26.52;13.43;;;;;;;;;;5042791;28;20025;-77
2022/03/02 05:36:45;;;;;;;28.88;13.93;;;;;;;;;;5042725;28;20344;-77
2022/03/02 05:39:11;;;;;;;30.58;13.80;;;;;;;;;;5042421;28;20025;-77
2022/03/02 05:41:38;;;;;;;29.50;14.40;;;;;;;;;;5042599;28;20025;-77
2022/03/02 05:44:04;;;;;;;24.77;13.07;;;;;;;;;;5042714;28;20097;-77
2022/03/02 05:46:30;;;;;;;28.42;14.15;;;;;;;;;;5040920;28;20277;-77
2022/03/02 05:48:56;;;;;;;26.40;13.57;;;;;;;;;;5042404;28;20026;-77
2022/03/02 05:51:21;;;;;;;25.15;12.98;;;;;;;;;;5042472;28;20025;-77
2022/03/02 05:53:46;;;;;;;27.38;13.13;;;;;;;;;;5042403;28;20116;-77
2022/03/02 05:56:12;;;;;;;28.67;13.15;;;;;;;;;;5041684;28;20049;-76
2022/03/02 05:58:37;;;;;;;30.17;13.48;;;;;;;;;;5042337;28;20457;-77
2022/03/02 06:01:03;;;;;;;28.30;14.30;;;;;;;;;;5040866;28;20029;-76
2022/03/02 06:03:29;;;;;;;28.58;13.55;;;;;;;;;;5040898;28;20022;-77
2022/03/02 06:05:55;;;;;;;25.55;12.95;;;;;;;;;;5040964;28;20041;-77
2022/03/02 06:08:21;;;;;;;30.27;14.10;;;;;;;;;;5042096;28;20029;-79
2022/03/02 06:10:47;;;;;;;25.92;13.45;;;;;;;;;;5042144;28;20048;-77
2022/03/02 06:13:14;;;;;;;26.13;13.23;;;;;;;;;;5041494;28;20318;-77
2022/03/02 06:15:40;;;;;;;27.40;13.40;;;;;;;;;;5041922;28;20045;-77
2022/03/02 06:18:05;;;;;;;27.63;13.23;;;;;;;;;;5042067;28;20048;-77
2022/03/02 06:20:31;;;;;;;27.25;13.00;;;;;;;;;;5041825;28;20041;-77
2022/03/02 06:22:58;;;;;;;30.75;13.52;;;;;;;;;;5041456;28;20021;-77
2022/03/02 06:25:23;;;;;;;29.55;14.55;;;;;;;;;;5041597;28;20034;-76
2022/03/02 06:27:49;;;;;;;28.17;13.15;;;;;;;;;;5041566;28;20025;-77
2022/03/02 06:30:14;;;;;;;33.55;13.15;;;;;;;;;;5041627;28;20029;-77
2022/03/02 06:32:40;;;;;;;28.88;13.00;;;;;;;;;;5041831;28;20262;-77
2022/03/02 06:35:07;;;;;;;28.80;13.77;;;;;;;;;;5041138;28;20345;-77
2022/03/02 06:37:33;;;;;;;30.45;14.35;;;;;;;;;;5041503;28;20033;-77
2022/03/02 06:40:04;;;;;;;27.02;13.07;;;;;;;;;;5041322;28;20022;-77
2022/03/02 06:42:46;;;;;;;27.83;13.75;;;;;;;;;;5041136;28;20033;-77
2022/03/02 06:45:20;;;;;;;29.83;13.85;;;;;;;;;;5041384;28;20100;-78
2022/03/02 06:47:53;;;;;;;27.83;14.00;;;;;;;;;;5046869;28;20033;-77
2022/03/02 06:50:23;;;;;;;33.05;13.35;;;;;;;;;;5040813;28;20318;-77
2022/03/02 06:52:53;;;;;;;33.90;13.40;;;;;;;;;;5040996;28;20024;-78
2022/03/02 06:55:19;;;;;;;32.47;13.35;;;;;;;;;;5040687;28;20032;-77
2022/03/02 06:57:59;;;;;;;30.67;13.95;;;;;;;;;;5040839;28;20037;-77
2022/03/02 07:00:25;;;;;;;31.27;14.23;;;;;;;;;;5040971;28;20021;-76
2022/03/02 07:03:01;;;;;;;27.00;14.13;;;;;;;;;;5041088;28;20084;-77
2022/03/02 07:05:27;;;;;;;28.83;13.35;;;;;;;;;;5039663;28;20037;-77
2022/03/02 07:07:52;;;;;;;29.05;13.35;;;;;;;;;;5040363;28;20079;-77
2022/03/02 07:10:18;;;;;;;32.45;13.73;;;;;;;;;;5040917;28;20071;-76
2022/03/02 07:12:44;;;;;;;29.40;14.23;;;;;;;;;;5040884;28;20049;-76
2022/03/02 07:15:12;;;;;;;28.25;13.68;;;;;;;;;;5040048;28;20032;-77
2022/03/02 07:17:39;;;;;;;27.85;14.43;;;;;;;;;;5040069;28;20029;-77
2022/03/02 07:20:10;;;;;;;24.13;13.07;;;;;;;;;;5036852;28;20119;-77
2022/03/02 07:22:40;;;;;;;28.00;14.15;;;;;;;;;;5040717;28;20095;-77
2022/03/02 07:25:12;;;;;;;25.80;13.07;;;;;;;;;;5039051;28;20218;-76
2022/03/02 07:27:40;;;;;;;27.20;14.13;;;;;;;;;;5040331;28;20052;-76
2022/03/02 07:30:08;;;;;;;29.90;14.43;;;;;;;;;;5039439;28;20036;-77
2022/03/02 07:32:35;;;;;;;29.60;13.95;;;;;;;;;;5039458;28;20026;-76
2022/03/02 07:35:04;;;;;;;27.33;14.07;;;;;;;;;;5040451;28;20022;-76
2022/03/02 07:37:29;;;;;;;27.42;13.45;;;;;;;;;;5039946;28;20044;-76
2022/03/02 07:39:56;;;;;;;28.65;14.00;;;;;;;;;;5040249;28;20388;-77
2022/03/02 07:42:22;;;;;;;31.00;13.75;;;;;;;;;;5040062;28;20159;-76
2022/03/02 07:44:50;;;;;;;32.47;13.68;;;;;;;;;;5038980;28;20077;-76
2022/03/02 07:47:17;;;;;;;27.80;13.32;;;;;;;;;;5036054;28;20057;-77
2022/03/02 07:49:43;;;;;;;29.67;13.32;;;;;;;;;;5036713;28;20025;-77
2022/03/02 07:52:10;;;;;;;26.35;13.65;;;;;;;;;;5039779;28;20067;-77
2022/03/02 07:54:37;;;;;;;26.40;13.63;;;;;;;;;;5037411;28;20040;-77
2022/03/02 07:57:05;;;;;;;25.35;12.70;;;;;;;;;;5040269;28;20040;-77
2022/03/02 07:59:37;;;;;;;30.73;13.73;;;;;;;;;;5038826;28;20032;-78
2022/03/02 08:02:04;;;;;;;30.92;13.77;;;;;;;;;;5039112;28;20067;-77
2022/03/02 08:04:31;;;;;;;27.17;11.85;;;;;;;;;;5039956;28;20048;-77
2022/03/02 08:06:57;;;;;;;25.65;12.65;;;;;;;;;;5043984;28;20093;-77
2022/03/02 08:09:22;;;;;;;26.25;12.90;;;;;;;;;;5042039;28;20091;-75
2022/03/02 08:11:47;;;;;;;27.70;12.60;;;;;;;;;;5037788;28;20401;-76
2022/03/02 08:14:13;;;;;;;27.25;13.57;;;;;;;;;;5039638;28;20033;-75
2022/03/02 08:16:40;;;;;;;29.75;13.40;;;;;;;;;;5038603;28;20045;-75
2022/03/02 08:19:07;;;;;;;25.63;12.70;;;;;;;;;;5038282;28;20313;-76
2022/03/02 08:21:35;;;;;;;29.50;13.38;;;;;;;;;;5038190;28;20048;-76
2022/03/02 08:24:06;;;;;;;29.92;14.05;;;;;;;;;;5038010;28;20032;-76
2022/03/02 08:26:33;;;;;;;25.02;12.43;;;;;;;;;;5039508;28;20025;-78
2022/03/02 08:29:04;;;;;;;28.55;13.43;;;;;;;;;;5043639;28;20035;-78
2022/03/02 08:31:30;;;;;;;28.38;13.07;;;;;;;;;;5043884;28;20088;-78
2022/03/02 08:33:57;;;;;;;24.85;12.05;;;;;;;;;;5043639;28;20225;-78
2022/03/02 08:36:24;;;;;;;25.95;12.60;;;;;;;;;;5040767;28;20018;-80
2022/03/02 08:38:51;;;;;;;25.27;12.82;;;;;;;;;;5039285;28;20022;-78
2022/03/02 08:41:18;;;;;;;27.42;12.85;;;;;;;;;;5042540;28;20021;-75
2022/03/02 08:43:45;;;;;;;22.75;12.20;;;;;;;;;;5042938;28;20033;-76
2022/03/02 08:46:11;;;;;;;29.27;12.98;;;;;;;;;;5043301;28;20067;-75
2022/03/02 08:48:36;;;;;;;27.42;13.02;;;;;;;;;;5043568;28;20025;-75
2022/03/02 08:51:03;;;;;;;24.73;12.27;;;;;;;;;;5043574;28;20088;-75
2022/03/02 08:53:30;;;;;;;29.98;13.35;;;;;;;;;;5040664;28;20029;-75
2022/03/02 08:55:59;;;;;;;25.95;12.88;;;;;;;;;;5035993;28;20425;-75
2022/03/02 08:58:26;;;;;;;26.35;13.15;;;;;;;;;;5019157;28;20063;-75
2022/03/02 09:00:52;;;;;;;27.50;13.68;;;;;;;;;;5035695;28;20112;-75
2022/03/02 09:03:18;;;;;;;26.33;12.52;;;;;;;;;;5030329;28;20014;-75
2022/03/02 09:05:45;;;;;;;24.48;12.90;;;;;;;;;;5035807;28;20044;-75
2022/03/02 09:08:12;;;;;;;28.95;13.07;;;;;;;;;;5035792;28;20946;-75
2022/03/02 09:10:37;;;;;;;22.65;12.15;;;;;;;;;;5034523;28;20214;-75
2022/03/02 09:13:04;;;;;;;27.52;13.10;;;;;;;;;;5024221;28;20064;-75
2022/03/02 09:15:29;;;;;;;26.38;12.95;;;;;;;;;;5041310;28;20106;-75
2022/03/02 09:17:55;;;;;;;25.15;13.40;;;;;;;;;;5042796;28;20033;-75
2022/03/02 09:20:23;;;;;;;29.38;13.30;;;;;;;;;;5035704;28;20029;-75
2022/03/02 09:22:50;;;;;;;27.35;13.10;;;;;;;;;;5035535;28;20096;-75
2022/03/02 09:25:16;;;;;;;23.23;12.07;;;;;;;;;;5035472;28;20048;-75
2022/03/02 09:27:42;;;;;;;24.00;12.85;;;;;;;;;;5035014;28;20025;-75
2022/03/02 09:30:09;;;;;;;23.77;12.43;;;;;;;;;;5032411;28;20030;-75
2022/03/02 09:32:39;;;;;;;22.35;12.20;;;;;;;;;;5040683;28;20304;-75
2022/03/02 09:35:05;;;;;;;23.38;12.50;;;;;;;;;;5043052;28;20033;-76
2022/03/02 09:37:37;;;;;;;25.00;12.70;;;;;;;;;;5042890;28;20029;-77
2022/03/02 09:40:04;;;;;;;27.42;12.68;;;;;;;;;;5042050;28;20024;-76
2022/03/02 09:42:34;;;;;;;26.63;12.90;;;;;;;;;;5043084;28;20036;-76
2022/03/02 09:45:07;;;;;;;24.40;12.35;;;;;;;;;;5042698;28;20118;-76
2022/03/02 09:47:50;;;;;;;22.40;12.20;;;;;;;;;;5042843;28;20013;-76
2022/03/02 09:50:17;;;;;;;24.73;12.68;;;;;;;;;;5023218;28;20036;-76
2022/03/02 09:52:45;;;;;;;26.50;12.60;;;;;;;;;;5022883;28;20022;-76
2022/03/02 09:55:13;;;;;;;27.40;12.98;;;;;;;;;;5030949;28;20092;-76
2022/03/02 09:57:45;;;;;;;24.77;13.07;;;;;;;;;;5041605;28;20075;-75
2022/03/02 10:00:14;;;;;;;24.67;12.70;;;;;;;;;;5036124;28;20038;-74
2022/03/02 10:02:42;;;;;;;27.17;13.15;;;;;;;;;;5034660;28;20064;-74
2022/03/02 10:05:11;;;;;;;24.33;12.45;;;;;;;;;;5034866;28;20080;-73
2022/03/02 10:07:44;;;;;;;26.75;12.93;;;;;;;;;;5034610;28;20367;-73
2022/03/02 10:10:17;;;;;;;25.73;12.68;;;;;;;;;;5034755;28;20718;-73
2022/03/02 10:12:42;;;;;;;31.27;13.43;;;;;;;;;;5034841;28;20029;-73
2022/03/02 10:15:11;;;;;;;24.02;12.82;;;;;;;;;;5034685;28;20029;-72
2022/03/02 10:17:38;;;;;;;24.27;12.88;;;;;;;;;;5033805;28;20030;-73
2022/03/02 10:20:10;;;;;;;28.77;13.18;;;;;;;;;;5027076;28;20343;-72
2022/03/02 10:23:09;;;;;;;26.10;12.80;;;;;;;;;;5058012;28;20044;-74
2022/03/02 10:25:49;;;;;;;26.75;12.82;;;;;;;;;;5027114;28;20044;-73
2022/03/02 10:28:44;;;;;;;24.55;12.48;;;;;;;;;;5029565;28;20033;-73
2022/03/02 10:31:15;;;;;;;30.05;13.07;;;;;;;;;;5022690;28;20116;-72
2022/03/02 10:33:47;;;;;;;26.85;13.50;;;;;;;;;;5040332;28;20194;-73
2022/03/02 10:36:13;;;;;;;25.25;13.25;;;;;;;;;;5036030;28;20432;-73
2022/03/02 10:38:38;;;;;;;25.65;13.02;;;;;;;;;;5039945;28;20060;-73
2022/03/02 10:41:07;;;;;;;27.45;14.15;;;;;;;;;;5033458;28;20356;-73
2022/03/02 10:43:53;;;;;;;24.63;13.13;;;;;;;;;;5040681;28;20028;-73
2022/03/02 10:46:24;;;;;;;24.95;13.68;;;;;;;;;;5034312;28;20033;-72
2022/03/02 10:49:03;;;;;;;27.67;14.43;;;;;;;;;;5024448;28;20030;-72
2022/03/02 10:51:31;;;;;;;27.67;14.13;;;;;;;;;;5041358;28;20071;-71
2022/03/02 10:54:00;;;;;;;28.38;13.68;;;;;;;;;;5025716;28;20036;-73
2022/03/02 10:56:27;;;;;;;27.05;13.85;;;;;;;;;;5021035;28;20041;-71
2022/03/02 10:58:54;;;;;;;25.13;14.40;;;;;;;;;;5021262;28;20064;-71
2022/03/02 11:01:20;;;;;;;27.75;14.20;;;;;;;;;;5021726;28;20057;-71
2022/03/02 11:03:46;;;;;;;30.65;13.82;;;;;;;;;;5021660;28;20022;-71
2022/03/02 11:06:11;;;;;;;27.10;14.10;;;;;;;;;;5021298;28;20245;-72
2022/03/02 11:08:38;;;;;;;33.15;14.65;;;;;;;;;;5020265;28;20088;-71
2022/03/02 11:11:06;;;;;;;25.23;13.70;;;;;;;;;;5021410;28;20030;-72
2022/03/02 11:13:31;;;;;;;25.83;13.00;;;;;;;;;;5022018;28;20286;-71
2022/03/02 11:16:00;;;;;;;26.33;13.85;;;;;;;;;;5022282;28;20200;-71
2022/03/02 11:18:52;;;;;;;26.50;13.70;;;;;;;;;;5021487;28;20041;-71
2022/03/02 11:21:20;;;;;;;24.67;12.95;;;;;;;;;;5021562;28;20037;-72
2022/03/02 11:23:54;;;;;;;26.05;14.35;;;;;;;;;;5021420;28;20203;-71
2022/03/02 11:26:28;;;;;;;25.83;13.50;;;;;;;;;;5021545;28;20397;-72
2022/03/02 11:28:55;;;;;;;24.05;13.10;;;;;;;;;;5021946;28;20306;-71
2022/03/02 11:31:38;;;;;;;25.08;13.50;;;;;;;;;;5021096;28;20070;-72
2022/03/02 11:34:26;;;;;;;29.17;13.73;;;;;;;;;;5020247;28;20034;-71
2022/03/02 11:37:07;;;;;;;26.10;13.40;;;;;;;;;;5021086;28;20036;-72
2022/03/02 11:39:32;;;;;;;25.58;13.52;;;;;;;;;;5021293;28;20036;-74
2022/03/02 11:42:02;;;;;;;25.50;13.52;;;;;;;;;;5020865;28;20230;-73
2022/03/02 11:44:32;;;;;;;27.33;13.15;;;;;;;;;;5021577;28;20034;-73
2022/03/02 11:47:05;;;;;;;27.40;14.02;;;;;;;;;;5021404;28;20025;-72
2022/03/02 11:49:39;;;;;;;24.77;13.20;;;;;;;;;;5021316;28;20032;-72
2022/03/02 11:52:07;;;;;;;26.33;13.38;;;;;;;;;;5020836;28;20109;-72
2022/03/02 11:55:09;;;;;;;30.42;13.23;;;;;;;;;;5020699;28;20025;-72
2022/03/02 11:57:44;;;;;;;27.35;13.82;;;;;;;;;;5021572;28;20034;-70
2022/03/02 12:00:17;;;;;;;24.40;13.40;;;;;;;;;;5020966;28;20093;-72
2022/03/02 12:02:47;;;;;;;25.55;13.57;;;;;;;;;;5022350;28;20034;-72
2022/03/02 12:05:14;;;;;;;28.67;13.63;;;;;;;;;;5055908;28;20092;-73
2022/03/02 12:07:46;;;;;;;24.83;13.40;;;;;;;;;;5024738;28;20037;-73
2022/03/02 12:10:25;;;;;;;26.65;13.88;;;;;;;;;;5025012;28;20512;-77
2022/03/02 12:12:53;;;;;;;26.45;13.38;;;;;;;;;;5025218;28;20036;-75
2022/03/02 12:15:19;;;;;;;23.70;13.15;;;;;;;;;;5030188;28;20025;-77
2022/03/02 12:17:46;;;;;;;26.73;14.40;;;;;;;;;;5024614;28;20037;-73
2022/03/02 12:20:17;;;;;;;28.67;13.77;;;;;;;;;;5024458;28;20021;-78
2022/03/02 12:22:46;;;;;;;25.92;13.70;;;;;;;;;;5024496;28;20037;-72
2022/03/02 12:25:13;;;;;;;25.80;13.63;;;;;;;;;;5024656;28;20029;-77
2022/03/02 12:27:47;;;;;;;25.65;14.07;;;;;;;;;;5024172;28;20413;-76
2022/03/02 12:30:12;;;;;;;26.60;13.95;;;;;;;;;;5041505;28;20021;-74
2022/03/02 12:32:40;;;;;;;25.45;13.55;;;;;;;;;;5044188;28;20347;-75
2022/03/02 12:35:10;;;;;;;26.25;13.70;;;;;;;;;;5041548;28;20053;-73
2022/03/02 12:37:36;;;;;;;23.80;14.02;;;;;;;;;;5042499;28;20048;-75
2022/03/02 12:40:09;;;;;;;25.58;13.63;;;;;;;;;;5043620;28;20321;-73
2022/03/02 12:42:36;;;;;;;25.27;13.23;;;;;;;;;;5042021;28;20217;-74
2022/03/02 12:45:02;;;;;;;29.08;14.27;;;;;;;;;;5044141;28;20095;-72
2022/03/02 12:47:30;;;;;;;27.92;14.00;;;;;;;;;;5044014;28;20049;-73
2022/03/02 12:49:57;;;;;;;24.58;13.65;;;;;;;;;;5043954;28;20021;-73
2022/03/02 12:52:25;;;;;;;24.70;13.48;;;;;;;;;;5040655;28;20030;-73
2022/03/02 12:54:52;;;;;;;24.55;13.38;;;;;;;;;;5023127;28;20335;-75
2022/03/02 12:57:21;;;;;;;27.73;14.02;;;;;;;;;;5028893;28;20034;-78
2022/03/02 12:59:47;;;;;;;28.90;13.93;;;;;;;;;;5043603;28;20333;-73
2022/03/02 13:02:17;;;;;;;24.25;13.75;;;;;;;;;;5042495;28;20032;-72
2022/03/02 13:05:04;;;;;;;24.95;13.77;;;;;;;;;;5043025;28;20050;-71
2022/03/02 13:07:32;;;;;;;32.00;14.63;;;;;;;;;;5043275;28;20107;-74
2022/03/02 13:10:03;;;;;;;25.83;13.80;;;;;;;;;;5043314;28;20216;-73
2022/03/02 13:12:40;;;;;;;27.05;14.02;;;;;;;;;;5041811;28;20315;-73
2022/03/02 13:15:21;;;;;;;26.23;13.68;;;;;;;;;;5043431;28;20051;-74
2022/03/02 13:18:06;;;;;;;25.73;13.30;;;;;;;;;;5043567;28;20337;-72
2022/03/02 13:20:33;;;;;;;28.63;13.25;;;;;;;;;;5043322;28;20055;-72
2022/03/02 13:23:11;;;;;;;28.65;13.13;;;;;;;;;;5042334;28;20193;-72
2022/03/02 13:25:36;;;;;;;35.90;18.50;;;;;;;;;;5043510;28;20021;-72
2022/03/02 13:28:10;;;;;;;32.65;15.00;;;;;;;;;;5043568;28;20195;-72
2022/03/02 13:30:37;;;;;;;27.45;13.25;;;;;;;;;;5043468;28;20033;-72
2022/03/02 13:33:04;;;;;;;30.75;14.07;;;;;;;;;;5043518;28;20029;-72
2022/03/02 13:35:33;;;;;;;29.70;14.40;;;;;;;;;;5043314;28;20025;-72
2022/03/02 13:38:11;;;;;;;30.58;13.45;;;;;;;;;;5043022;28;20026;-72
2022/03/02 13:40:42;;;;;;;29.50;13.13;;;;;;;;;;5043258;28;20037;-72
2022/03/02 13:43:11;;;;;;;27.17;13.27;;;;;;;;;;5043614;28;20028;-72
2022/03/02 13:45:38;;;;;;;27.50;12.82;;;;;;;;;;5043311;28;20041;-72
2022/03/02 13:48:18;;;;;;;30.67;13.10;;;;;;;;;;5043283;28;20093;-72
2022/03/02 13:51:06;;;;;;;29.00;13.65;;;;;;;;;;5044448;28;20306;-72
2022/03/02 13:53:35;;;;;;;31.35;14.05;;;;;;;;;;5042853;28;20029;-72
2022/03/02 13:56:31;;;;;;;30.50;13.52;;;;;;;;;;5043005;28;20083;-72
2022/03/02 13:59:00;;;;;;;28.70;12.93;;;;;;;;;;5043789;28;20360;-72
2022/03/02 14:01:32;;;;;;;30.25;14.43;;;;;;;;;;5042012;28;20032;-72
2022/03/02 14:04:08;;;;;;;28.67;13.90;;;;;;;;;;5042713;28;20021;-72
2022/03/02 14:06:36;;;;;;;29.73;13.90;;;;;;;;;;5042451;28;20250;-72
2022/03/02 14:09:04;;;;;;;28.38;13.50;;;;;;;;;;5042375;28;20041;-72
2022/03/02 14:11:33;;;;;;;31.88;13.35;;;;;;;;;;5042525;28;20317;-72
2022/03/02 14:14:10;;;;;;;31.00;13.88;;;;;;;;;;5042622;28;20116;-72
2022/03/02 14:16:36;;;;;;;28.73;13.68;;;;;;;;;;5042875;28;20064;-72
2022/03/02 14:19:12;;;;;;;31.20;13.82;;;;;;;;;;5042560;28;20017;-72
2022/03/02 14:21:51;;;;;;;;;;;;;;;;;;5042949;28;20044;-71
2022/03/02 14:24:17;;;;;;;28.52;14.00;;;;;;;;;;5041140;28;20080;-72